Latest Weather Observations for Perisher Valley

IDN60901

Issued at 4:15 pm EST Thursday 2 October 2014 (issued every 10 minutes, with the page automatically refreshed every 10 minutes)

About weather observations | Map of Canberra area stations | Latest observations for Canberra area | Other Formats
Station Details ID: 071075 Name: PERISHER VALLEY AWS Lat: -36.41 Lon: 148.41 Height: 1738.0 m
Data from the previous 72 hours. | See also: Recent months at Perisher Valley
Date/Time
EST
Tmp

°C
App
Tmp
°C
Dew
Point
°C
Rel
Hum
%
Delta-T

°C
Wind Press
QNH
hPa
Press
MSL
hPa
Rain
since
9 am
mm
Dir
 
Spd
km/h
Gust
km/h
Spd
kts
Gust
kts
02/04:00pm 9.3 5.8 1.5 58 3.6 W 9 15 5 8 - - 0.0
02/03:30pm 9.8 6.3 1.5 56 3.8 W 9 22 5 12 - - 0.0
02/03:00pm 10.0 5.6 0.6 52 4.3 W 13 28 7 15 - - 0.0
02/02:30pm 10.5 6.0 0.0 48 4.7 W 13 28 7 15 - - 0.0
02/02:00pm 10.7 6.9 -0.4 46 5.0 WSW 9 22 5 12 - - 0.0
02/11:00am 9.4 5.2 -0.8 49 4.5 WSW 11 26 6 14 - - 0.0
02/10:30am 9.3 4.8 -0.3 51 4.2 WSW 13 30 7 16 - - 0.0
02/10:00am 9.8 5.4 0.2 51 4.3 SW 13 35 7 19 - - 0.0
02/09:30am 9.5 5.4 0.1 52 4.2 WSW 11 32 6 17 - - 0.0
02/09:00am 9.6 5.2 0.2 52 4.2 SW 13 30 7 16 - - 0.0
02/08:30am 8.5 3.8 -1.9 48 4.4 WSW 13 24 7 13 - - 0.0
02/08:00am 8.5 4.1 -2.4 46 4.6 WSW 11 28 6 15 - - 0.0
02/07:30am 7.4 3.0 -2.3 50 4.0 WSW 11 24 6 13 - - 0.0
02/07:00am 6.5 1.2 -3.2 50 3.9 WSW 15 28 8 15 - - 0.0
02/06:30am 6.2 -0.2 -1.7 57 3.3 WSW 22 43 12 23 - - 0.0
02/06:00am 5.0 0.4 -1.2 64 2.6 WSW 13 30 7 16 - - 0.0
02/05:30am 4.3 0.1 -1.1 68 2.2 WSW 11 26 6 14 - - 0.0
02/05:00am 3.9 -0.3 -1.1 70 2.1 WSW 11 30 6 16 - - 0.0
02/04:30am 3.2 -0.7 -1.5 71 1.9 WSW 9 24 5 13 - - 0.0
02/04:00am 2.9 -1.0 -1.8 71 1.9 WSW 9 22 5 12 - - 0.0
02/03:30am 2.9 -3.0 -2.2 69 2.0 WSW 19 35 10 19 - - 0.0
02/03:00am -0.4 -3.7 -4.6 73 1.5 SSW 4 7 2 4 - - 0.0
02/02:30am -0.7 -3.3 -5.1 72 1.5 CALM 0 2 0 1 - - 0.0
02/02:00am 0.3 -4.0 -4.7 69 1.8 SSW 9 15 5 8 - - 0.0
02/01:30am 0.0 -3.9 -5.0 69 1.8 SW 7 15 4 8 - - 0.0
02/01:00am 0.5 -3.4 -4.9 67 2.0 WSW 7 24 4 13 - - 0.0
02/12:30am 0.0 -4.0 -5.2 68 1.9 SW 7 17 4 9 - - 0.0
02/12:00am -1.1 -4.9 -4.1 80 1.0 SW 7 17 4 9 - - 0.0
 
Date/Time
EST
Tmp

°C
App
Tmp
°C
Dew
Point
°C
Rel
Hum
%
Delta-T

°C
Wind Press
QNH
hPa
Press
MSL
hPa
Rain
since
9 am
mm
Dir
 
Spd
km/h
Gust
km/h
Spd
kts
Gust
kts
01/11:30pm -1.2 -4.8 -3.9 82 0.9 SW 6 15 3 8 - - 0.0
01/11:00pm -0.9 -4.5 -3.7 81 1.0 SW 6 17 3 9 - - 0.0
01/10:30pm -0.9 -3.7 -3.3 84 0.8 SW 2 13 1 7 - - 0.0
01/10:00pm -0.4 -4.0 -2.4 86 0.7 WSW 7 19 4 10 - - 0.0
01/09:30pm -0.6 -3.3 -2.3 88 0.6 WSW 2 7 1 4 - - 0.0
01/09:00pm -0.9 -3.7 -2.9 86 0.7 SSW 2 4 1 2 - - 0.0
01/08:30pm -0.5 -3.2 -2.7 85 0.8 SW 2 9 1 5 - - 0.0
01/08:00pm 0.0 -3.4 -2.1 86 0.8 W 6 22 3 12 - - 0.0
01/07:30pm 0.1 -3.5 -2.3 84 0.9 W 7 19 4 10 - - 0.0
01/07:00pm 0.2 -3.8 -2.5 82 1.0 WSW 9 19 5 10 - - 0.0
01/06:30pm 0.4 -3.1 -2.8 79 1.2 W 6 15 3 8 - - 0.0
01/06:00pm 0.6 -3.0 -3.3 75 1.5 W 6 17 3 9 - - 0.0
01/05:30pm 1.3 -2.2 -3.2 72 1.8 W 6 19 3 10 - - 0.0
01/05:00pm 2.5 -2.4 -3.0 67 2.1 WSW 13 22 7 12 - - 0.0
01/04:30pm 3.2 -1.3 -3.1 63 2.4 W 11 19 6 10 - - 0.0
01/04:00pm 2.8 -1.0 -3.7 62 2.5 W 7 15 4 8 - - 0.0
01/03:30pm 4.4 0.0 -5.6 48 3.7 WSW 9 26 5 14 - - 0.0
01/03:00pm 4.2 -0.6 -6.1 47 3.8 WSW 11 26 6 14 - - 0.0
01/02:30pm 4.0 -1.3 -6.8 45 3.9 WSW 13 41 7 22 - - 0.0
01/02:00pm 3.5 -2.0 -5.7 51 3.4 WSW 15 32 8 17 - - 0.0
01/01:30pm 2.9 -2.6 -5.2 55 3.1 WSW 15 33 8 18 - - 0.0
01/01:00pm 2.3 -3.2 -5.8 55 3.0 WSW 15 32 8 17 - - 0.0
01/12:30pm 2.5 -2.7 -5.8 54 3.1 WSW 13 30 7 16 - - 0.0
01/12:00pm 2.2 -2.9 -5.4 57 2.9 WSW 13 28 7 15 - - 0.0
01/11:30am 2.0 -2.2 -4.3 63 2.5 SW 9 22 5 12 - - 0.0
01/11:00am 1.5 -4.0 -5.8 58 2.7 WSW 15 39 8 21 - - 0.0
01/10:30am 0.8 -5.7 -5.8 61 2.4 WSW 20 33 11 18 - - 0.0
01/10:00am 0.7 -4.5 -5.9 61 2.4 SW 13 33 7 18 - - 0.0
01/09:30am -0.6 -6.3 -7.2 61 2.2 WSW 15 39 8 21 - - 0.0
01/09:00am -0.9 -7.0 -7.5 61 2.2 WSW 17 39 9 21 - - 3.4
01/08:30am -1.2 -6.4 -6.5 67 1.7 SW 13 39 7 21 - - 3.4
01/08:00am -1.8 -7.2 -7.9 63 1.9 SW 13 37 7 20 - - 3.4
01/07:30am -2.4 -8.1 -7.7 67 1.6 WSW 15 33 8 18 - - 3.4
01/07:00am -2.7 -8.8 -7.6 69 1.5 SW 17 39 9 21 - - 3.4
01/06:30am -3.0 -8.7 -7.5 71 1.3 WSW 15 33 8 18 - - 3.4
01/06:00am -3.9 -9.2 -7.3 77 0.9 SW 13 35 7 19 - - 3.4
01/05:30am -3.7 -9.4 -7.3 76 1.0 WSW 15 33 8 18 - - 3.4
01/05:00am -3.6 -9.3 -7.2 76 1.0 WSW 15 33 8 18 - - 3.4
01/04:30am -3.6 -10.0 -7.2 76 1.0 W 19 33 10 18 - - 3.4
01/04:00am -3.6 -10.1 -7.4 75 1.1 W 19 41 10 22 - - 3.4
01/03:30am -3.5 -8.4 -6.9 77 1.0 W 11 28 6 15 - - 3.4
01/03:00am -3.1 -9.2 -7.2 73 1.2 W 17 37 9 20 - - 3.4
01/02:30am -2.8 -9.4 -7.1 72 1.3 W 20 50 11 27 - - 3.4
01/02:00am -2.5 -8.2 -7.6 68 1.5 WNW 15 35 8 19 - - 3.4
01/01:30am -2.0 -9.0 -7.7 65 1.8 W 22 41 12 22 - - 3.4
01/01:00am -1.7 -8.2 -7.4 65 1.8 W 19 41 10 22 - - 3.4
01/12:30am -1.1 -7.7 -7.0 64 1.9 W 20 41 11 22 - - 3.4
01/12:00am -0.2 -6.1 -6.0 65 2.0 W 17 37 9 20 - - 3.4
 
Date/Time
EST
Tmp

°C
App
Tmp
°C
Dew
Point
°C
Rel
Hum
%
Delta-T

°C
Wind Press
QNH
hPa
Press
MSL
hPa
Rain
since
9 am
mm
Dir
 
Spd
km/h
Gust
km/h
Spd
kts
Gust
kts
30/11:30pm 0.9 -4.4 -3.6 72 1.7 W 15 41 8 22 - - 3.4
30/11:00pm 1.4 -3.2 -1.2 83 1.0 W 13 30 7 16 - - 3.4
30/10:30pm 1.9 -5.9 -1.0 81 1.2 WNW 30 65 16 35 - - 3.4
30/10:25pm 2.2 -5.2 -0.9 80 1.3 W 28 65 15 35 - - 3.2
30/10:00pm 4.2 -1.7 1.9 85 1.0 W 22 76 12 41 - - 3.0
30/09:30pm 4.7 -2.3 1.9 82 1.3 W 28 59 15 32 - - 2.8
30/09:00pm 5.9 -1.0 2.5 79 1.6 WNW 28 61 15 33 - - 2.4
30/08:55pm 6.0 -0.9 2.6 79 1.6 W 28 54 15 29 - - 2.4
30/08:30pm 5.9 -0.2 2.7 80 1.5 WNW 24 56 13 30 - - 2.4
30/08:08pm 5.9 -1.0 2.7 80 1.5 W 28 54 15 29 - - 2.4
30/08:00pm 5.5 -0.3 2.5 81 1.4 W 22 67 12 36 - - 2.4
30/07:30pm 7.3 1.0 1.8 68 2.5 W 24 56 13 30 - - 0.2
30/07:00pm 7.6 3.8 1.5 65 2.8 NW 11 33 6 18 - - 0.0
30/06:30pm 7.4 3.2 1.9 68 2.5 W 13 57 7 31 - - 0.0
30/06:00pm 7.7 2.8 1.8 66 2.7 WNW 17 50 9 27 - - 0.0
30/05:30pm 7.9 4.0 1.1 62 3.1 W 11 43 6 23 - - 0.0
30/05:00pm 8.1 4.1 0.8 60 3.3 W 11 30 6 16 - - 0.0
30/04:30pm 8.3 3.1 0.3 57 3.6 W 17 52 9 28 - - 0.0
30/04:00pm 8.8 3.2 -0.2 53 4.0 W 19 44 10 24 - - 0.0
30/03:30pm 9.1 5.1 0.3 54 3.9 W 11 41 6 22 - - 0.0
30/03:00pm 8.8 5.0 1.7 61 3.3 WNW 11 44 6 24 - - 0.0
30/02:30pm 8.7 4.8 0.9 58 3.5 W 11 37 6 20 - - 0.0
30/02:00pm 9.6 5.0 1.5 57 3.7 W 15 39 8 21 - - 0.0
30/01:30pm 8.8 1.3 1.0 58 3.5 W 30 61 16 33 - - 0.0
30/01:00pm 9.1 1.8 2.7 64 3.0 W 30 63 16 34 - - 0.0
30/12:30pm 8.7 0.0 1.8 62 3.2 W 37 76 20 41 - - 0.0
30/12:00pm 8.7 -0.9 1.4 60 3.3 W 41 78 22 42 - - 0.0
30/11:30am 8.8 -0.9 0.5 56 3.7 W 41 78 22 42 - - 0.0
30/11:00am 8.7 0.5 0.2 55 3.8 W 33 70 18 38 - - 0.0
30/10:30am 8.6 0.6 0.3 56 3.7 W 32 63 17 34 - - 0.0
30/10:12am 8.6 1.3 0.3 56 3.7 W 28 57 15 31 - - 0.0
30/10:00am 8.5 1.8 1.4 61 3.2 W 26 52 14 28 - - 0.0
30/09:30am 8.3 2.7 1.0 60 3.3 W 20 46 11 25 - - 0.0
30/09:00am 8.2 2.8 1.4 62 3.1 W 19 41 10 22 - - 0.0
30/08:30am 8.0 3.7 1.2 62 3.1 W 13 37 7 20 - - 0.0
30/08:00am 7.7 3.0 0.9 62 3.0 W 15 37 8 20 - - 0.0
30/07:30am 7.2 2.5 0.6 63 2.9 W 15 41 8 22 - - 0.0
30/07:00am 6.8 1.3 0.5 64 2.8 W 19 46 10 25 - - 0.0
30/06:30am 6.5 1.7 0.4 65 2.7 W 15 43 8 23 - - 0.0
30/06:00am 6.1 1.3 0.2 66 2.6 W 15 33 8 18 - - 0.0
30/05:30am 6.0 1.6 0.1 66 2.6 W 13 37 7 20 - - 0.0
30/05:00am 6.7 -1.6 -0.1 62 3.0 W 33 54 18 29 - - 0.0
30/04:30am 6.7 -0.6 -0.1 62 3.0 W 28 52 15 28 - - 0.0
30/04:00am 7.0 -1.6 0.0 61 3.1 W 35 65 19 35 - - 0.0
30/03:30am 7.3 -1.4 -0.6 57 3.4 W 35 61 19 33 - - 0.0
30/03:00am 7.5 -1.6 -0.7 56 3.5 W 37 59 20 32 - - 0.0
30/02:30am 7.2 -1.6 -1.2 55 3.6 W 35 57 19 31 - - 0.0
30/02:00am 7.0 -0.9 -1.2 56 3.5 W 30 61 16 33 - - 0.0
30/01:45am 7.0 -0.4 -0.7 58 3.3 W 28 57 15 31 - - 0.0
30/01:30am 6.8 0.9 -0.6 59 3.2 W 20 59 11 32 - - 0.0
30/01:01am 7.3 -0.1 -0.6 57 3.4 W 28 63 15 34 - - 0.0
30/01:00am 7.2 0.2 -0.7 57 3.4 W 26 63 14 34 - - 0.0
30/12:30am 6.8 1.4 -1.6 55 3.5 W 17 43 9 23 - - 0.0
30/12:19am 7.0 -0.5 -1.7 54 3.6 W 28 41 15 22 - - 0.0
30/12:00am 6.7 3.2 -2.7 51 3.8 WNW 6 20 3 11 - - 0.0
 
Date/Time
EST
Tmp

°C
App
Tmp
°C
Dew
Point
°C
Rel
Hum
%
Delta-T

°C
Wind Press
QNH
hPa
Press
MSL
hPa
Rain
since
9 am
mm
Dir
 
Spd
km/h
Gust
km/h
Spd
kts
Gust
kts
29/11:30pm 6.0 2.3 -5.0 45 4.2 NNE 6 17 3 9 - - 0.0
29/11:00pm 6.0 2.5 -6.2 41 4.5 NW 4 19 2 10 - - 0.0
29/10:30pm 5.4 2.5 -1.3 62 2.8 WNW 4 11 2 6 - - 0.0
29/10:00pm 5.0 1.5 -3.0 56 3.2 NW 6 11 3 6 - - 0.0
29/09:30pm 5.9 1.8 -2.7 54 3.5 W 9 15 5 8 - - 0.0
29/09:00pm 6.3 1.7 -3.9 48 4.0 W 11 22 6 12 - - 0.0
29/08:30pm 6.4 1.9 -3.5 49 3.9 W 11 19 6 10 - - 0.0
29/08:00pm 6.3 1.9 -2.3 54 3.5 W 11 19 6 10 - - 0.0
29/07:30pm 6.2 2.0 -1.2 59 3.1 W 11 17 6 9 - - 0.0
29/07:00pm 6.9 1.6 -0.8 58 3.3 W 17 30 9 16 - - 0.0
29/06:30pm 7.2 1.9 -0.5 58 3.3 W 17 26 9 14 - - 0.0
29/06:00pm 7.8 2.9 -0.2 57 3.5 W 15 22 8 12 - - 0.0
29/05:30pm 8.4 3.5 -0.6 53 3.9 WNW 15 28 8 15 - - 0.0
29/05:00pm 9.7 5.7 0.6 53 4.1 W 11 22 6 12 - - 0.0
29/04:30pm 10.3 5.5 0.3 50 4.5 W 15 30 8 16 - - 0.0

Latest Capital City Observations: Canberra | Sydney | Melbourne | Brisbane | Adelaide | Perth | Hobart | Darwin

Other Formats:

Comma delimited format used in spreadsheet applications
http://www.bom.gov.au/fwo/IDN60903/IDN60903.94915.axf

JavaScript Object Notation format (JSON) in row-major order
http://www.bom.gov.au/fwo/IDN60903/IDN60903.94915.json